Wakefield, Virginia
Current Conditions -  °F | °C
As of 2:54 AM on Saturday 20 Dec 2014 (Local Time) from KAKQ Reporting Station
Clear Clear  
Wind Chill: 28°   Ceiling: Unl
Heat Index: 28°   Visibility: 10mi
Dew Point: 24°   Wind: 0mph
Humidity: 85%   Direction: NA
Pressure: 30.26"   Gusts: NA
Location:  36.97°N, 76.99°W
Report Text: KAKQ 200754Z AUTO 00000KT 10SM CLR M02/M04 A3026 RMK AO2 SLP251 T10221044 TSNO
Loading
Personal Weather Stations






























Interactive Weather Map New forecast layout! Learn more

10-Day Weather Forecast

Advertisements
Track Severe Weather on mobile